Time;durP1;ratioP1;P1;durP2;ratioP2;P2;SDS_P1;SDS_P2;PMS_P1;PMS_P2;Temp;Humidity;BMP_temperature;BMP_pressure;BME280_temperature;BME280_humidity;BME280_pressure;Samples;Min_cycle;Max_cycle;Signal;HPM_P1;HPM_P2
2021/03/28 12:58:08;;;;;;;6.38;1.58;;;;;;;;;;5156168;27;20305;-77
2021/03/28 13:00:35;;;;;;;4.82;1.00;;;;;;;;;;5155736;27;20111;-76
2021/03/28 13:03:10;;;;;;;4.03;1.38;;;;;;;;;;5150962;27;20046;-77
2021/03/28 13:05:38;;;;;;;4.05;1.42;;;;;;;;;;5146183;27;20087;-77
2021/03/28 13:08:10;;;;;;;4.95;1.10;;;;;;;;;;5148698;27;20027;-76
2021/03/28 13:10:38;;;;;;;4.25;1.75;;;;;;;;;;5150396;27;20027;-76
2021/03/28 13:13:04;;;;;;;6.20;1.42;;;;;;;;;;5149928;27;20379;-74
2021/03/28 13:15:42;;;;;;;4.85;1.05;;;;;;;;;;5150522;27;20080;-74
2021/03/28 13:18:38;;;;;;;9.82;1.42;;;;;;;;;;5148018;27;20019;-75
2021/03/28 13:21:22;;;;;;;3.25;1.27;;;;;;;;;;5136952;27;20032;-74
2021/03/28 13:23:48;;;;;;;5.70;1.13;;;;;;;;;;5149714;27;20019;-75
2021/03/28 13:26:26;;;;;;;4.18;1.23;;;;;;;;;;5149874;27;20049;-77
2021/03/28 13:29:03;;;;;;;5.00;1.40;;;19.00;57.10;;;;;;5150332;27;20097;-77
2021/03/28 13:31:49;;;;;;;3.42;1.10;;;;;;;;;;5142326;27;20019;-76
2021/03/28 13:34:15;;;;;;;4.30;1.17;;;;;;;;;;5134485;27;20042;-76
2021/03/28 13:36:44;;;;;;;5.63;1.10;;;19.80;52.10;;;;;;5149508;27;20102;-77
2021/03/28 13:39:16;;;;;;;2.53;0.98;;;19.80;51.80;;;;;;5149140;27;20011;-75
2021/03/28 13:42:02;;;;;;;6.32;1.08;;;;;;;;;;5148210;27;20053;-75
2021/03/28 13:44:30;;;;;;;6.65;1.50;;;;;;;;;;5150623;27;20023;-75
2021/03/28 13:46:58;;;;;;;4.07;1.10;;;;;;;;;;5131156;27;20036;-74
2021/03/28 13:49:26;;;;;;;3.10;1.20;;;;;;;;;;5129238;27;20480;-75
2021/03/28 13:52:31;;;;;;;4.25;1.50;;;;;;;;;;5128578;27;20108;-75
2021/03/28 13:55:06;;;;;;;8.65;1.65;;;;;;;;;;5092458;28;20027;-75
2021/03/28 13:57:34;;;;;;;8.38;1.55;;;;;;;;;;5105992;28;20040;-75
2021/03/28 14:00:00;;;;;;;4.32;1.45;;;;;;;;;;5128380;27;20050;-75
2021/03/28 14:02:27;;;;;;;4.18;1.05;;;;;;;;;;5149800;27;20502;-76
2021/03/28 14:05:03;;;;;;;7.35;1.30;;;;;;;;;;5150371;27;20023;-75
2021/03/28 14:07:36;;;;;;;8.07;1.40;;;;;;;;;;5149680;27;20158;-75
2021/03/28 14:10:05;;;;;;;5.38;1.63;;;;;;;;;;5137028;27;20367;-75
2021/03/28 14:12:51;;;;;;;7.43;1.40;;;;;;;;;;5137475;27;20042;-76
2021/03/28 14:15:23;;;;;;;5.80;1.52;;;;;;;;;;5116533;27;20111;-77
2021/03/28 14:17:57;;;;;;;6.68;1.30;;;;;;;;;;5116055;28;20027;-75
2021/03/28 14:20:35;;;;;;;6.63;2.13;;;;;;;;;;5115274;28;20026;-76
2021/03/28 14:23:10;;;;;;;7.72;2.40;;;;;;;;;;5114107;28;20055;-76
2021/03/28 14:25:42;;;;;;;4.63;1.30;;;;;;;;;;5114945;28;20035;-76
2021/03/28 14:28:26;;;;;;;3.95;1.10;;;;;;;;;;5123907;27;20487;-75
2021/03/28 14:31:00;;;;;;;7.18;1.95;;;;;;;;;;5126846;27;20032;-75
2021/03/28 14:33:36;;;;;;;4.00;1.40;;;;;;;;;;5120197;27;20110;-75
2021/03/28 14:36:28;;;;;;;6.28;1.35;;;;;;;;;;5135324;27;20494;-74
2021/03/28 14:39:12;;;;;;;5.40;1.17;;;;;;;;;;5135124;27;20019;-75
2021/03/28 14:41:38;;;;;;;4.70;1.40;;;;;;;;;;5130096;27;20015;-76
2021/03/28 14:44:23;;;;;;;6.93;1.50;;;;;;;;;;5132129;27;20058;-75
2021/03/28 14:46:56;;;;;;;6.85;1.70;;;;;;;;;;5137189;27;20031;-77
2021/03/28 14:49:22;;;;;;;6.80;1.77;;;;;;;;;;5135346;27;20091;-74
2021/03/28 14:52:06;;;;;;;3.92;1.42;;;;;;;;;;5130500;27;20091;-75
2021/03/28 14:54:39;;;;;;;4.57;1.40;;;;;;;;;;5123258;27;20084;-79
2021/03/28 14:57:05;;;;;;;;;;;;;;;;;;5124983;27;20034;-81
2021/03/28 14:59:53;;;;;;;6.28;1.42;;;;;;;;;;5127503;27;19904;-82
2021/03/28 15:02:29;;;;;;;7.82;1.33;;;;;;;;;;5136135;27;20027;-78
2021/03/28 15:05:08;;;;;;;4.90;1.38;;;;;;;;;;5138837;27;20031;-78
2021/03/28 15:07:52;;;;;;;5.13;1.38;;;;;;;;;;5133237;27;20506;-76
2021/03/28 15:10:37;;;;;;;4.38;1.55;;;;;;;;;;5129846;27;20483;-75
2021/03/28 15:13:12;;;;;;;6.03;1.30;;;;;;;;;;5130982;27;20150;-78
2021/03/28 15:15:51;;;;;;;4.18;1.50;;;;;;;;;;5135543;27;20038;-77
2021/03/28 15:18:23;;;;;;;6.30;1.52;;;;;;;;;;5140185;27;20074;-77
2021/03/28 15:20:56;;;;;;;5.78;1.40;;;;;;;;;;5133405;27;20055;-76
2021/03/28 15:23:22;;;;;;;6.07;1.20;;;;;;;;;;5133627;27;20065;-75
2021/03/28 15:25:52;;;;;;;5.90;1.42;;;;;;;;;;5133523;27;20098;-76
2021/03/28 15:28:20;;;;;;;6.10;1.33;;;;;;;;;;5130168;27;20023;-76
2021/03/28 15:30:56;;;;;;;5.70;1.10;;;;;;;;;;5137440;27;20023;-76
2021/03/28 15:33:34;;;;;;;7.43;1.48;;;;;;;;;;5140101;27;20072;-76
2021/03/28 15:36:06;;;;;;;5.30;1.20;;;;;;;;;;5126175;27;20019;-76
2021/03/28 15:38:51;;;;;;;5.13;1.40;;;;;;;;;;5133739;27;20050;-76
2021/03/28 15:41:24;;;;;;;5.80;1.30;;;;;;;;;;5140834;27;20105;-75
2021/03/28 15:43:50;;;;;;;5.63;1.10;;;;;;;;;;5133827;27;20049;-76
2021/03/28 15:46:22;;;;;;;6.18;1.33;;;;;;;;;;5126790;27;20036;-76
2021/03/28 15:48:48;;;;;;;5.05;1.05;;;;;;;;;;5123486;27;20055;-76
2021/03/28 15:51:14;;;;;;;7.43;1.15;;;;;;;;;;5119193;27;20135;-76
2021/03/28 15:54:07;;;;;;;4.90;1.27;;;;;;;;;;5120523;27;20019;-75
2021/03/28 15:56:52;;;;;;;6.28;1.13;;;;;;;;;;5089231;27;20038;-76
2021/03/28 15:59:30;;;;;;;4.45;1.20;;;;;;;;;;5124234;27;20021;-77
2021/03/28 16:02:05;;;;;;;6.57;1.48;;;;;;;;;;5118702;27;20020;-77
2021/03/28 16:04:49;;;;;;;4.88;1.20;;;;;;;;;;5119106;27;20105;-77
2021/03/28 16:07:35;;;;;;;7.53;1.40;;;;;;;;;;5117629;27;20031;-77
2021/03/28 16:10:18;;;;;;;5.10;1.13;;;;;;;;;;5118671;27;20280;-75
2021/03/28 16:12:50;;;;;;;5.82;1.52;;;;;;;;;;5124390;27;20094;-74
2021/03/28 16:15:35;;;;;;;4.25;1.10;;;;;;;;;;5123784;27;20042;-75
2021/03/28 16:18:17;;;;;;;6.78;1.52;;;;;;;;;;5121063;27;20107;-74
2021/03/28 16:20:49;;;;;;;4.13;1.00;;;;;;;;;;5118972;27;20023;-74
2021/03/28 16:23:15;;;;;;;4.28;1.10;;;;;;;;;;5120789;27;20115;-74
2021/03/28 16:25:50;;;;;;;4.40;1.35;;;;;;;;;;5122780;27;20429;-75
2021/03/28 16:28:22;;;;;;;6.82;1.35;;;;;;;;;;5128515;27;20034;-76
2021/03/28 16:30:53;;;;;;;5.45;1.20;;;;;;;;;;5132136;27;20031;-75
2021/03/28 16:33:38;;;;;;;4.75;1.25;;;;;;;;;;5131978;27;20055;-76
2021/03/28 16:36:07;;;;;;;4.88;1.45;;;;;;;;;;5114171;27;20034;-76
2021/03/28 16:38:51;;;;;;;4.22;1.13;;;;;;;;;;5111785;28;20028;-77
2021/03/28 16:41:36;;;;;;;7.82;2.08;;;;;;;;;;5110850;28;20124;-75
2021/03/28 16:44:10;;;;;;;7.78;1.92;;;;;;;;;;5120709;27;20019;-76
2021/03/28 16:46:45;;;;;;;5.93;1.30;;;;;;;;;;5122162;27;20031;-75
2021/03/28 16:49:20;;;;;;;5.15;1.27;;;;;;;;;;5120665;28;20046;-75
2021/03/28 16:51:49;;;;;;;6.93;1.25;;;;;;;;;;5120032;27;20464;-75
2021/03/28 16:54:23;;;;;;;5.22;1.45;;;;;;;;;;5121489;27;20088;-76
2021/03/28 16:57:01;;;;;;;3.97;1.20;;;;;;;;;;5119212;28;20170;-76
2021/03/28 16:59:37;;;;;;;6.22;1.50;;;;;;;;;;5121274;27;20482;-75
2021/03/28 17:02:05;;;;;;;4.75;1.98;;;;;;;;;;5118333;28;20042;-75
2021/03/28 17:04:35;;;;;;;7.80;1.77;;;;;;;;;;5130718;27;20051;-75
2021/03/28 17:07:10;;;;;;;8.20;2.03;;;;;;;;;;5132050;27;20525;-75
2021/03/28 17:09:38;;;;;;;5.95;2.45;;;;;;;;;;5131355;27;20034;-75
2021/03/28 17:12:12;;;;;;;5.30;1.38;;;;;;;;;;5131755;27;20501;-75
2021/03/28 17:14:41;;;;;;;6.85;1.50;;;;;;;;;;5132480;27;20030;-74
2021/03/28 17:17:13;;;;;;;7.75;1.30;;;;;;;;;;5119774;27;20474;-73
2021/03/28 17:19:41;;;;;;;6.00;1.40;;;;;;;;;;5111658;28;20020;-75
2021/03/28 17:22:26;;;;;;;3.97;1.50;;;;;;;;;;5111343;28;20047;-74
2021/03/28 17:25:13;;;;;;;7.82;2.50;;;;;;;;;;5112582;28;20545;-74
2021/03/28 17:27:59;;;;;;;7.20;1.73;;;;;;;;;;5113801;28;20070;-75
2021/03/28 17:30:44;;;;;;;4.60;1.10;;;;;;;;;;5131708;27;20023;-75
2021/03/28 17:33:29;;;;;;;5.30;1.65;;;;;;;;;;5125937;27;20031;-75
2021/03/28 17:36:14;;;;;;;6.00;1.35;;;;;;;;;;5122479;28;20487;-75
2021/03/28 17:38:52;;;;;;;5.45;1.48;;;;;;;;;;5121634;27;20015;-75
2021/03/28 17:41:37;;;;;;;7.25;1.65;;;;;;;;;;5121464;27;20091;-77
2021/03/28 17:44:03;;;;;;;9.30;1.58;;;;;;;;;;5122751;27;20038;-76
2021/03/28 17:46:55;;;;;;;8.65;1.40;;;;;;;;;;5126091;27;20034;-75
2021/03/28 17:49:39;;;;;;;4.03;1.40;;;;;;;;;;5099113;27;20043;-76
2021/03/28 17:52:18;;;;;;;5.97;1.40;;;;;;;;;;5124825;27;20027;-74
2021/03/28 17:54:48;;;;;;;6.80;1.23;;;;;;;;;;5125475;27;20015;-72
2021/03/28 17:57:17;;;;;;;5.78;1.52;;;;;;;;;;5117768;27;20039;-75
2021/03/28 17:59:43;;;;;;;4.75;1.30;;;;;;;;;;5115124;28;20030;-75
2021/03/28 18:02:30;;;;;;;6.00;1.50;;;;;;;;;;5122400;27;20593;-75
2021/03/28 18:05:08;;;;;;;10.20;4.60;;;;;;;;;;5121974;27;20022;-74
2021/03/28 18:07:37;;;;;;;15.88;10.10;;;;;;;;;;5125879;27;20027;-77
2021/03/28 18:10:06;;;;;;;15.57;10.18;;;;;;;;;;5133064;27;20023;-78
2021/03/28 18:12:32;;;;;;;10.73;6.78;;;;;;;;;;5133632;27;20019;-75
2021/03/28 18:15:05;;;;;;;13.18;9.05;;;;;;;;;;5133169;27;20530;-74
2021/03/28 18:17:32;;;;;;;16.00;7.85;;;;;;;;;;5123902;27;20604;-76
2021/03/28 18:20:11;;;;;;;7.30;3.45;;;;;;;;;;5124809;27;20023;-77
2021/03/28 18:22:39;;;;;;;7.75;2.10;;;;;;;;;;5124481;27;20036;-79
2021/03/28 18:25:06;;;;;;;4.25;2.03;;;;;;;;;;5122924;27;20384;-76
2021/03/28 18:27:37;;;;;;;7.53;2.35;;;;;;;;;;5132283;27;20038;-74
2021/03/28 18:30:28;;;;;;;11.98;2.70;;;;;;;;;;5137080;27;20448;-74
2021/03/28 18:33:03;;;;;;;10.82;2.60;;;;;;;;;;5134872;27;20027;-75
2021/03/28 18:35:30;;;;;;;8.60;1.95;;;;;;;;;;5155628;27;20029;-74
2021/03/28 18:38:01;;;;;;;7.65;2.28;;;;;;;;;;5155477;27;20029;-74
2021/03/28 18:40:48;;;;;;;7.95;2.60;;;;;;;;;;5123716;27;20054;-75
2021/03/28 18:43:14;;;;;;;6.78;3.03;;;;;;;;;;5104070;22;20071;-81
2021/03/28 18:45:45;;;;;;;7.00;3.17;;;;;;;;;;5095773;28;20066;-80
2021/03/28 18:48:26;;;;;;;8.35;2.75;;;;;;;;;;5097724;28;20025;-79
2021/03/28 18:51:01;;;;;;;6.63;2.20;;;;;;;;;;5097554;28;20021;-80
2021/03/28 18:53:38;;;;;;;7.65;2.25;;;;;;;;;;5112558;28;20058;-82
